sensor_id;sensor_type;location;lat;lon;timestamp;P1;durP1;ratioP1;P2;durP2;ratioP2
1523;SDS011;755;53.658;10.118;2023-02-18T00:03:35;33.60;;;4.13;;
1523;SDS011;755;53.658;10.118;2023-02-18T00:13:38;34.47;;;4.55;;
1523;SDS011;755;53.658;10.118;2023-02-18T00:23:41;35.95;;;3.80;;
1523;SDS011;755;53.658;10.118;2023-02-18T00:33:45;45.05;;;5.80;;
1523;SDS011;755;53.658;10.118;2023-02-18T00:43:47;28.80;;;4.28;;
1523;SDS011;755;53.658;10.118;2023-02-18T00:53:51;38.20;;;4.10;;
1523;SDS011;755;53.658;10.118;2023-02-18T01:03:53;43.08;;;4.68;;
1523;SDS011;755;53.658;10.118;2023-02-18T01:13:56;37.13;;;3.95;;
1523;SDS011;755;53.658;10.118;2023-02-18T01:23:58;38.08;;;4.10;;
1523;SDS011;755;53.658;10.118;2023-02-18T01:34:01;34.10;;;3.85;;
1523;SDS011;755;53.658;10.118;2023-02-18T01:44:11;40.92;;;4.78;;
1523;SDS011;755;53.658;10.118;2023-02-18T01:54:15;29.38;;;3.20;;
1523;SDS011;755;53.658;10.118;2023-02-18T02:04:20;30.35;;;3.97;;
1523;SDS011;755;53.658;10.118;2023-02-18T02:14:30;37.63;;;4.43;;
1523;SDS011;755;53.658;10.118;2023-02-18T02:24:45;35.90;;;4.18;;
1523;SDS011;755;53.658;10.118;2023-02-18T02:35:01;34.60;;;3.10;;
1523;SDS011;755;53.658;10.118;2023-02-18T02:45:07;23.27;;;4.18;;
1523;SDS011;755;53.658;10.118;2023-02-18T02:55:16;31.63;;;3.28;;
1523;SDS011;755;53.658;10.118;2023-02-18T03:05:19;26.42;;;3.05;;
1523;SDS011;755;53.658;10.118;2023-02-18T03:15:34;29.73;;;2.80;;
1523;SDS011;755;53.658;10.118;2023-02-18T03:25:40;37.88;;;2.65;;
1523;SDS011;755;53.658;10.118;2023-02-18T03:35:44;20.00;;;2.50;;
1523;SDS011;755;53.658;10.118;2023-02-18T03:45:48;30.05;;;2.58;;
1523;SDS011;755;53.658;10.118;2023-02-18T03:55:51;29.10;;;3.35;;
1523;SDS011;755;53.658;10.118;2023-02-18T04:05:53;25.95;;;2.22;;
1523;SDS011;755;53.658;10.118;2023-02-18T04:15:57;18.40;;;2.88;;
1523;SDS011;755;53.658;10.118;2023-02-18T04:25:58;21.80;;;2.88;;
1523;SDS011;755;53.658;10.118;2023-02-18T04:36:02;15.48;;;2.00;;
1523;SDS011;755;53.658;10.118;2023-02-18T04:46:04;20.67;;;2.35;;
1523;SDS011;755;53.658;10.118;2023-02-18T04:56:07;23.55;;;2.38;;
1523;SDS011;755;53.658;10.118;2023-02-18T05:06:09;16.70;;;1.60;;
1523;SDS011;755;53.658;10.118;2023-02-18T05:16:13;19.08;;;2.33;;
1523;SDS011;755;53.658;10.118;2023-02-18T05:26:15;16.90;;;1.52;;
1523;SDS011;755;53.658;10.118;2023-02-18T05:36:19;21.92;;;2.85;;
1523;SDS011;755;53.658;10.118;2023-02-18T05:46:21;11.63;;;1.55;;
1523;SDS011;755;53.658;10.118;2023-02-18T05:56:24;15.95;;;1.73;;
1523;SDS011;755;53.658;10.118;2023-02-18T06:06:26;28.10;;;2.60;;
1523;SDS011;755;53.658;10.118;2023-02-18T06:16:30;6.13;;;1.08;;
1523;SDS011;755;53.658;10.118;2023-02-18T06:26:32;11.98;;;1.35;;
1523;SDS011;755;53.658;10.118;2023-02-18T06:36:35;16.23;;;1.35;;
1523;SDS011;755;53.658;10.118;2023-02-18T06:46:37;13.48;;;1.83;;
1523;SDS011;755;53.658;10.118;2023-02-18T06:56:40;13.60;;;1.63;;
1523;SDS011;755;53.658;10.118;2023-02-18T07:06:42;13.05;;;1.77;;
1523;SDS011;755;53.658;10.118;2023-02-18T07:16:46;10.52;;;1.88;;
1523;SDS011;755;53.658;10.118;2023-02-18T07:26:48;8.05;;;1.20;;
1523;SDS011;755;53.658;10.118;2023-02-18T07:36:51;11.55;;;1.45;;
1523;SDS011;755;53.658;10.118;2023-02-18T07:46:53;14.35;;;2.00;;
1523;SDS011;755;53.658;10.118;2023-02-18T07:56:56;17.55;;;2.47;;
1523;SDS011;755;53.658;10.118;2023-02-18T08:06:58;13.60;;;1.70;;
1523;SDS011;755;53.658;10.118;2023-02-18T08:17:02;14.93;;;2.80;;
1523;SDS011;755;53.658;10.118;2023-02-18T08:27:04;14.98;;;2.17;;
1523;SDS011;755;53.658;10.118;2023-02-18T08:37:07;15.07;;;2.33;;
1523;SDS011;755;53.658;10.118;2023-02-18T08:47:09;14.63;;;2.50;;
1523;SDS011;755;53.658;10.118;2023-02-18T08:57:13;12.50;;;2.30;;
1523;SDS011;755;53.658;10.118;2023-02-18T09:07:15;7.15;;;1.70;;
1523;SDS011;755;53.658;10.118;2023-02-18T09:17:18;14.02;;;2.67;;
1523;SDS011;755;53.658;10.118;2023-02-18T09:27:21;16.77;;;3.20;;
1523;SDS011;755;53.658;10.118;2023-02-18T09:37:25;18.45;;;2.85;;
1523;SDS011;755;53.658;10.118;2023-02-18T09:47:37;15.43;;;4.10;;
1523;SDS011;755;53.658;10.118;2023-02-18T09:57:44;23.05;;;6.40;;
1523;SDS011;755;53.658;10.118;2023-02-18T10:07:47;22.90;;;7.80;;
1523;SDS011;755;53.658;10.118;2023-02-18T10:17:52;17.23;;;7.53;;
1523;SDS011;755;53.658;10.118;2023-02-18T10:27:57;16.08;;;7.90;;
1523;SDS011;755;53.658;10.118;2023-02-18T10:38:04;18.85;;;7.72;;
1523;SDS011;755;53.658;10.118;2023-02-18T10:48:17;18.85;;;7.85;;
1523;SDS011;755;53.658;10.118;2023-02-18T10:58:45;14.13;;;6.57;;
1523;SDS011;755;53.658;10.118;2023-02-18T11:08:51;12.27;;;6.72;;
1523;SDS011;755;53.658;10.118;2023-02-18T11:19:03;15.93;;;7.35;;
1523;SDS011;755;53.658;10.118;2023-02-18T11:29:30;14.50;;;6.93;;
1523;SDS011;755;53.658;10.118;2023-02-18T11:39:36;13.23;;;7.28;;
1523;SDS011;755;53.658;10.118;2023-02-18T11:49:58;13.27;;;8.73;;
1523;SDS011;755;53.658;10.118;2023-02-18T12:00:24;19.73;;;11.77;;
1523;SDS011;755;53.658;10.118;2023-02-18T12:10:38;22.50;;;13.13;;
1523;SDS011;755;53.658;10.118;2023-02-18T12:21:02;5.78;;;4.03;;
1523;SDS011;755;53.658;10.118;2023-02-18T12:31:28;4.22;;;2.45;;
1523;SDS011;755;53.658;10.118;2023-02-18T12:41:45;13.90;;;2.58;;
1523;SDS011;755;53.658;10.118;2023-02-18T12:51:59;13.23;;;2.75;;
1523;SDS011;755;53.658;10.118;2023-02-18T13:02:10;13.70;;;2.30;;
1523;SDS011;755;53.658;10.118;2023-02-18T13:12:28;16.13;;;2.85;;
1523;SDS011;755;53.658;10.118;2023-02-18T13:22:40;19.13;;;2.80;;
1523;SDS011;755;53.658;10.118;2023-02-18T13:32:46;16.05;;;2.75;;
1523;SDS011;755;53.658;10.118;2023-02-18T13:43:19;3.60;;;2.30;;
1523;SDS011;755;53.658;10.118;2023-02-18T13:53:30;3.80;;;2.28;;
1523;SDS011;755;53.658;10.118;2023-02-18T14:03:49;3.87;;;2.47;;
1523;SDS011;755;53.658;10.118;2023-02-18T14:14:12;6.88;;;3.63;;
1523;SDS011;755;53.658;10.118;2023-02-18T14:24:17;4.50;;;3.53;;
1523;SDS011;755;53.658;10.118;2023-02-18T14:45:31;3.90;;;2.63;;
1523;SDS011;755;53.658;10.118;2023-02-18T14:55:43;3.20;;;1.25;;
1523;SDS011;755;53.658;10.118;2023-02-18T15:05:49;2.30;;;1.55;;
1523;SDS011;755;53.658;10.118;2023-02-18T15:15:52;1.58;;;1.30;;
1523;SDS011;755;53.658;10.118;2023-02-18T15:25:59;2.40;;;0.80;;
1523;SDS011;755;53.658;10.118;2023-02-18T15:36:02;4.43;;;1.00;;
1523;SDS011;755;53.658;10.118;2023-02-18T15:46:09;1.10;;;0.77;;
1523;SDS011;755;53.658;10.118;2023-02-18T15:56:16;2.55;;;1.88;;
1523;SDS011;755;53.658;10.118;2023-02-18T16:06:24;2.13;;;1.23;;
1523;SDS011;755;53.658;10.118;2023-02-18T16:16:29;1.73;;;1.02;;
1523;SDS011;755;53.658;10.118;2023-02-18T16:26:40;1.90;;;1.10;;
1523;SDS011;755;53.658;10.118;2023-02-18T16:36:45;3.22;;;2.08;;
1523;SDS011;755;53.658;10.118;2023-02-18T16:47:02;7.20;;;4.20;;
1523;SDS011;755;53.658;10.118;2023-02-18T16:57:08;3.63;;;2.80;;
1523;SDS011;755;53.658;10.118;2023-02-18T17:07:13;4.35;;;2.75;;
1523;SDS011;755;53.658;10.118;2023-02-18T17:17:15;7.28;;;4.47;;
1523;SDS011;755;53.658;10.118;2023-02-18T17:27:22;7.88;;;5.13;;
1523;SDS011;755;53.658;10.118;2023-02-18T17:37:25;9.30;;;5.22;;
1523;SDS011;755;53.658;10.118;2023-02-18T17:47:28;11.40;;;6.35;;
1523;SDS011;755;53.658;10.118;2023-02-18T17:57:30;11.30;;;6.75;;
1523;SDS011;755;53.658;10.118;2023-02-18T18:07:34;16.60;;;9.40;;
1523;SDS011;755;53.658;10.118;2023-02-18T18:17:36;12.18;;;7.38;;
1523;SDS011;755;53.658;10.118;2023-02-18T18:27:39;15.13;;;8.55;;
1523;SDS011;755;53.658;10.118;2023-02-18T18:37:41;18.20;;;10.05;;
1523;SDS011;755;53.658;10.118;2023-02-18T18:47:45;19.65;;;11.15;;
1523;SDS011;755;53.658;10.118;2023-02-18T18:57:48;19.92;;;10.25;;
1523;SDS011;755;53.658;10.118;2023-02-18T19:07:52;21.40;;;11.23;;
1523;SDS011;755;53.658;10.118;2023-02-18T19:17:54;21.25;;;12.70;;
1523;SDS011;755;53.658;10.118;2023-02-18T19:27:57;22.10;;;11.45;;
1523;SDS011;755;53.658;10.118;2023-02-18T19:38:01;23.15;;;11.93;;
1523;SDS011;755;53.658;10.118;2023-02-18T19:48:04;16.92;;;9.50;;
1523;SDS011;755;53.658;10.118;2023-02-18T19:58:06;19.63;;;10.25;;
1523;SDS011;755;53.658;10.118;2023-02-18T20:08:10;17.65;;;10.25;;
1523;SDS011;755;53.658;10.118;2023-02-18T20:18:12;22.67;;;10.52;;
1523;SDS011;755;53.658;10.118;2023-02-18T20:28:17;21.55;;;13.38;;
1523;SDS011;755;53.658;10.118;2023-02-18T20:38:27;28.15;;;15.27;;
1523;SDS011;755;53.658;10.118;2023-02-18T20:48:36;22.05;;;12.45;;
1523;SDS011;755;53.658;10.118;2023-02-18T20:58:42;38.42;;;19.13;;
1523;SDS011;755;53.658;10.118;2023-02-18T21:08:52;26.90;;;14.77;;
1523;SDS011;755;53.658;10.118;2023-02-18T21:18:56;29.20;;;13.97;;
1523;SDS011;755;53.658;10.118;2023-02-18T21:29:05;23.55;;;14.23;;
1523;SDS011;755;53.658;10.118;2023-02-18T21:39:14;31.92;;;16.00;;
1523;SDS011;755;53.658;10.118;2023-02-18T21:49:23;30.67;;;14.35;;
1523;SDS011;755;53.658;10.118;2023-02-18T21:59:32;27.85;;;13.88;;
1523;SDS011;755;53.658;10.118;2023-02-18T22:09:39;34.50;;;18.45;;
1523;SDS011;755;53.658;10.118;2023-02-18T22:19:47;31.40;;;11.73;;
1523;SDS011;755;53.658;10.118;2023-02-18T22:29:52;33.42;;;18.67;;
1523;SDS011;755;53.658;10.118;2023-02-18T22:39:58;28.65;;;13.55;;
1523;SDS011;755;53.658;10.118;2023-02-18T22:50:05;26.20;;;12.70;;
1523;SDS011;755;53.658;10.118;2023-02-18T23:00:13;21.98;;;12.07;;
1523;SDS011;755;53.658;10.118;2023-02-18T23:10:21;21.15;;;10.98;;
1523;SDS011;755;53.658;10.118;2023-02-18T23:20:28;23.73;;;10.93;;
1523;SDS011;755;53.658;10.118;2023-02-18T23:30:54;30.85;;;10.23;;
1523;SDS011;755;53.658;10.118;2023-02-18T23:41:01;19.77;;;9.75;;
1523;SDS011;755;53.658;10.118;2023-02-18T23:51:12;19.80;;;9.18;;
